W63 weather

Public forecast

Using degrees Fahrenheit for public forecast. Weather courtesy of forecast.io.

Current aviation weather report (METAR) for Lake Country Regional Airport

Retrieved 2020/08/09 08:35 UTC (0 seconds ago):

KW63 090835Z AUTO 00000KT 1/4SM OVC001 21/21 A3013 RMK AO1

Closest aviation forecast (TAF) to Lake Country Regional Airport

Closest forecast is Danville Regional Airport, 37.4 nm (69.3 km) W. Retrieved 2020/08/09 06:45 UTC (1 hour ago):

TAF KDAN 090541Z 0906/1006 00000KT 5SM BR SCT005 BKN025 FM090800 00000KT 2SM BR OVC003 TEMPO 0910/0912 1/4SM FG VV001 FM091300 VRB03KT P6SM BKN015 FM091600 21005KT P6SM BKN050 FM100300 16003KT P6SM SKC